createdAt,value
2023-10-05T00:01:09.068Z,77.90
2023-10-05T00:03:39.624Z,77.90
2023-10-05T00:06:17.428Z,77.90
2023-10-05T00:08:54.666Z,78.10
2023-10-05T00:11:37.140Z,78.10
2023-10-05T00:14:09.496Z,78.00
2023-10-05T00:16:39.362Z,78.00
2023-10-05T00:19:14.571Z,77.80
2023-10-05T00:21:53.464Z,78.00
2023-10-05T00:24:30.748Z,78.00
2023-10-05T00:26:59.740Z,77.90
2023-10-05T00:29:27.094Z,78.00
2023-10-05T00:31:54.508Z,78.20
2023-10-05T00:34:21.743Z,78.00
2023-10-05T00:36:57.397Z,77.90
2023-10-05T00:39:25.733Z,77.70
2023-10-05T00:42:07.580Z,78.00
2023-10-05T00:44:38.224Z,77.80
2023-10-05T00:47:07.982Z,77.60
2023-10-05T00:49:46.940Z,77.70
2023-10-05T00:52:16.949Z,77.80
2023-10-05T00:54:50.011Z,77.80
2023-10-05T00:57:21.031Z,77.80
2023-10-05T00:59:55.964Z,77.80
2023-10-05T01:02:23.429Z,77.70
2023-10-05T01:05:03.315Z,77.70
2023-10-05T01:07:51.102Z,77.80
2023-10-05T01:10:18.440Z,78.10
2023-10-05T01:12:46.870Z,78.10
2023-10-05T01:15:20.504Z,78.00
2023-10-05T01:17:51.625Z,78.30
2023-10-05T01:20:20.812Z,78.20
2023-10-05T01:22:48.642Z,78.30
2023-10-05T01:25:16.703Z,78.10
2023-10-05T01:27:50.585Z,78.20
2023-10-05T01:30:20.996Z,78.10
2023-10-05T01:32:49.528Z,78.40
2023-10-05T01:35:22.275Z,78.30
2023-10-05T01:37:56.909Z,78.20
2023-10-05T01:40:31.698Z,78.40
2023-10-05T01:43:01.009Z,78.30
2023-10-05T01:45:31.413Z,78.30
2023-10-05T01:48:15.958Z,78.10
2023-10-05T01:50:45.724Z,78.00
2023-10-05T01:53:21.125Z,77.90
2023-10-05T01:55:49.006Z,78.10
2023-10-05T01:58:25.944Z,78.30
2023-10-05T02:00:54.235Z,78.30
2023-10-05T02:03:26.191Z,78.20
2023-10-05T02:06:00.129Z,78.30
2023-10-05T02:08:34.896Z,78.70
2023-10-05T02:11:05.334Z,78.40
2023-10-05T02:13:33.164Z,78.50
2023-10-05T02:16:01.338Z,78.50
2023-10-05T02:18:31.664Z,78.30
2023-10-05T02:21:08.085Z,78.60
2023-10-05T02:23:43.261Z,78.70
2023-10-05T02:26:25.212Z,78.70
2023-10-05T02:28:52.887Z,78.60
2023-10-05T02:31:21.695Z,78.50
2023-10-05T02:33:49.297Z,78.50
2023-10-05T02:36:22.541Z,78.30
2023-10-05T02:38:55.718Z,78.10
2023-10-05T02:41:39.417Z,77.90
2023-10-05T02:44:18.894Z,77.80
2023-10-05T02:46:50.308Z,77.50
2023-10-05T02:49:19.747Z,77.30
2023-10-05T02:51:53.858Z,77.40
2023-10-05T02:54:31.938Z,77.50
2023-10-05T02:56:59.141Z,77.40
2023-10-05T02:59:31.017Z,77.50
2023-10-05T03:02:04.720Z,77.40
2023-10-05T03:04:46.320Z,77.20
2023-10-05T03:07:19.819Z,77.30
2023-10-05T03:09:50.457Z,77.10
2023-10-05T03:12:22.155Z,77.10
2023-10-05T03:14:53.560Z,76.80
2023-10-05T03:17:22.290Z,77.00
2023-10-05T03:19:53.832Z,77.00
2023-10-05T03:22:25.984Z,77.00
2023-10-05T03:24:57.508Z,76.90
2023-10-05T03:27:27.469Z,76.70
2023-10-05T03:30:02.007Z,76.60
2023-10-05T03:32:30.499Z,76.50
2023-10-05T03:34:58.321Z,76.70
2023-10-05T03:37:26.124Z,76.60
2023-10-05T03:39:54.695Z,76.70
2023-10-05T03:42:24.937Z,76.60
2023-10-05T03:45:12.992Z,76.60
2023-10-05T03:47:40.334Z,76.40
2023-10-05T03:50:18.500Z,76.50
2023-10-05T03:52:49.729Z,76.50
2023-10-05T03:55:20.622Z,76.80
2023-10-05T03:57:51.584Z,76.70
2023-10-05T04:00:39.668Z,76.80
2023-10-05T04:03:08.920Z,76.90
2023-10-05T04:05:41.020Z,77.20
2023-10-05T04:08:13.552Z,77.20
2023-10-05T04:10:53.349Z,77.30
2023-10-05T04:13:23.008Z,77.00
2023-10-05T04:15:52.957Z,77.00
2023-10-05T04:18:23.131Z,76.80
2023-10-05T04:20:54.321Z,77.00
2023-10-05T04:23:27.426Z,77.30
2023-10-05T04:25:59.072Z,77.50
2023-10-05T04:28:35.792Z,77.70
2023-10-05T04:31:08.196Z,77.90
2023-10-05T04:33:35.378Z,77.90
2023-10-05T04:36:05.061Z,77.90
2023-10-05T04:38:33.440Z,77.90
2023-10-05T04:41:00.820Z,77.70
2023-10-05T04:43:28.080Z,77.70
2023-10-05T04:45:55.287Z,77.60
2023-10-05T04:48:24.790Z,77.50
2023-10-05T04:50:53.064Z,77.60
2023-10-05T04:53:21.624Z,77.80
2023-10-05T04:55:48.811Z,77.80
2023-10-05T04:58:22.230Z,77.80
2023-10-05T05:00:51.312Z,77.60
2023-10-05T05:03:34.130Z,77.60
2023-10-05T05:06:01.444Z,77.30
2023-10-05T05:08:28.512Z,77.30
2023-10-05T05:10:55.588Z,77.30
2023-10-05T05:13:22.645Z,77.10
2023-10-05T05:15:49.808Z,77.20
2023-10-05T05:18:17.829Z,77.10
2023-10-05T05:20:48.655Z,76.90
2023-10-05T05:23:18.136Z,76.70
2023-10-05T05:25:50.128Z,76.50
2023-10-05T05:28:17.885Z,76.40
2023-10-05T05:30:45.009Z,76.30
2023-10-05T05:33:13.431Z,76.40
2023-10-05T05:35:41.257Z,76.30
2023-10-05T05:38:12.154Z,76.30
2023-10-05T05:40:40.389Z,76.50
2023-10-05T05:43:12.789Z,76.20
2023-10-05T05:45:44.210Z,76.50
2023-10-05T05:48:15.758Z,76.40
2023-10-05T05:50:44.908Z,76.30
2023-10-05T05:53:18.086Z,76.00
2023-10-05T05:55:46.094Z,75.90
2023-10-05T05:58:18.373Z,76.10
2023-10-05T06:00:47.769Z,75.90
2023-10-05T06:03:15.675Z,76.10
2023-10-05T06:05:43.044Z,76.00
2023-10-05T06:08:12.347Z,75.70
2023-10-05T06:10:39.654Z,75.60
2023-10-05T06:13:07.441Z,75.60
2023-10-05T06:15:36.506Z,75.90
2023-10-05T06:18:04.646Z,75.10
2023-10-05T06:20:33.410Z,74.60
2023-10-05T06:23:01.925Z,74.60
2023-10-05T06:25:29.562Z,74.70
2023-10-05T06:27:56.721Z,74.40
2023-10-05T06:30:24.164Z,74.00
2023-10-05T06:32:51.687Z,74.40
2023-10-05T06:35:19.531Z,74.10
2023-10-05T06:37:47.028Z,73.90
2023-10-05T06:40:14.993Z,73.50
2023-10-05T06:42:43.858Z,73.80
2023-10-05T06:45:17.576Z,73.70
2023-10-05T06:47:45.116Z,73.70
2023-10-05T06:50:12.611Z,73.70
2023-10-05T06:52:44.894Z,73.50
2023-10-05T06:55:13.677Z,73.60
2023-10-05T06:57:44.777Z,73.50
2023-10-05T07:00:22.629Z,73.70
2023-10-05T07:02:53.651Z,73.20
2023-10-05T07:05:21.400Z,73.00
2023-10-05T07:07:48.446Z,73.10
2023-10-05T07:10:17.092Z,72.20
2023-10-05T07:12:49.337Z,71.90
2023-10-05T07:15:19.242Z,71.70
2023-10-05T07:17:48.986Z,71.90
2023-10-05T07:20:18.033Z,71.90
2023-10-05T07:23:06.694Z,71.50
2023-10-05T07:25:34.767Z,71.10
2023-10-05T07:28:01.871Z,70.80
2023-10-05T07:30:30.411Z,71.00
2023-10-05T07:33:12.899Z,70.30
2023-10-05T07:35:43.266Z,70.70
2023-10-05T07:38:12.702Z,70.40
2023-10-05T07:40:41.053Z,70.70
2023-10-05T07:43:08.201Z,70.20
2023-10-05T07:45:35.639Z,70.30
2023-10-05T07:48:06.135Z,69.90
2023-10-05T07:50:33.640Z,70.50
2023-10-05T07:53:00.823Z,69.60
2023-10-05T07:55:28.238Z,70.00
2023-10-05T07:57:55.913Z,69.10
2023-10-05T08:00:23.129Z,69.70
2023-10-05T08:02:50.296Z,69.60
2023-10-05T08:05:17.700Z,68.60
2023-10-05T08:07:48.240Z,68.50
2023-10-05T08:10:17.376Z,69.00
2023-10-05T08:12:45.551Z,68.60
2023-10-05T08:15:19.925Z,68.20
2023-10-05T08:17:49.793Z,68.30
2023-10-05T08:20:22.661Z,67.60
2023-10-05T08:22:52.000Z,68.00
2023-10-05T08:25:19.781Z,66.80
2023-10-05T08:27:49.926Z,67.40
2023-10-05T08:30:17.081Z,66.90
2023-10-05T08:32:49.450Z,65.60
2023-10-05T08:35:20.086Z,66.40
2023-10-05T08:37:54.848Z,66.70
2023-10-05T08:40:37.155Z,67.20
2023-10-05T08:43:18.132Z,66.00
2023-10-05T08:45:54.006Z,65.50
2023-10-05T08:48:36.871Z,65.00
2023-10-05T08:51:14.338Z,64.70
2023-10-05T08:53:44.965Z,64.40
2023-10-05T08:56:16.750Z,65.10
2023-10-05T08:58:48.595Z,64.10
2023-10-05T09:01:32.982Z,65.50
2023-10-05T09:04:05.217Z,66.20
2023-10-05T09:06:32.501Z,64.00
2023-10-05T09:09:04.840Z,62.00
2023-10-05T09:11:33.149Z,63.00
2023-10-05T09:14:28.878Z,61.00
2023-10-05T09:17:09.071Z,58.00
2023-10-05T09:19:38.663Z,57.60
2023-10-05T09:22:13.337Z,59.30
2023-10-05T09:24:44.152Z,56.80
2023-10-05T09:27:14.348Z,56.50
2023-10-05T09:29:43.258Z,56.90
2023-10-05T09:32:37.980Z,55.60
2023-10-05T09:35:11.539Z,56.40
2023-10-05T09:37:42.114Z,54.70
2023-10-05T09:40:17.202Z,54.50
2023-10-05T09:42:46.157Z,55.80
2023-10-05T09:45:14.746Z,54.10
2023-10-05T09:47:42.884Z,54.10
2023-10-05T09:50:12.229Z,54.50
2023-10-05T09:52:46.807Z,53.60
2023-10-05T09:55:14.530Z,52.40
2023-10-05T09:57:43.370Z,52.50
2023-10-05T10:00:29.125Z,53.40
2023-10-05T10:03:01.329Z,52.50
2023-10-05T10:05:35.128Z,52.00
2023-10-05T10:08:13.962Z,52.10
2023-10-05T10:10:53.571Z,52.70
2023-10-05T10:13:23.873Z,51.70
2023-10-05T10:15:54.839Z,51.60
2023-10-05T10:18:32.476Z,50.90
2023-10-05T10:20:59.932Z,52.10
2023-10-05T10:23:41.087Z,51.80
2023-10-05T10:26:19.450Z,51.20
2023-10-05T10:29:07.777Z,53.60
2023-10-05T10:31:44.966Z,52.20
2023-10-05T10:34:21.270Z,53.10
2023-10-05T10:36:54.602Z,52.40
2023-10-05T10:39:26.137Z,51.20
2023-10-05T10:42:08.353Z,51.40
2023-10-05T10:44:58.722Z,50.00
2023-10-05T10:47:28.541Z,50.20
2023-10-05T10:50:23.693Z,50.60
2023-10-05T10:52:52.087Z,50.70
2023-10-05T10:55:22.071Z,49.50
2023-10-05T10:57:49.843Z,50.20
2023-10-05T11:00:35.842Z,50.40
2023-10-05T11:03:13.417Z,50.80
2023-10-05T11:05:44.870Z,50.90
2023-10-05T11:08:13.052Z,49.60
2023-10-05T11:10:44.473Z,49.90
2023-10-05T11:13:20.939Z,50.10
2023-10-05T11:16:01.857Z,49.80
2023-10-05T11:18:42.364Z,50.10
2023-10-05T11:21:17.560Z,50.40
2023-10-05T11:23:49.714Z,49.90
2023-10-05T11:26:20.450Z,51.80
2023-10-05T11:28:54.935Z,50.90
2023-10-05T11:31:45.056Z,50.40
2023-10-05T11:35:03.339Z,49.70
2023-10-05T11:37:19.976Z,49.10
2023-10-05T11:39:50.862Z,50.50
2023-10-05T11:42:26.160Z,49.70
2023-10-05T11:45:14.081Z,49.30
2023-10-05T11:47:47.097Z,47.80
2023-10-05T11:50:26.019Z,48.60
2023-10-05T11:52:54.234Z,48.60
2023-10-05T11:55:21.748Z,48.70
2023-10-05T11:57:49.601Z,48.10
2023-10-05T12:00:19.357Z,49.50
2023-10-05T12:02:47.477Z,48.40
2023-10-05T12:05:15.721Z,47.10
2023-10-05T12:07:47.208Z,46.50
2023-10-05T12:10:14.971Z,47.20
2023-10-05T12:12:43.115Z,47.00
2023-10-05T12:15:14.085Z,46.30
2023-10-05T12:17:41.636Z,47.20
2023-10-05T12:20:10.216Z,46.30
2023-10-05T12:22:38.723Z,46.10
2023-10-05T12:25:09.097Z,47.10
2023-10-05T12:27:37.237Z,47.70
2023-10-05T12:30:12.532Z,48.30
2023-10-05T12:32:40.790Z,46.50
2023-10-05T12:35:09.360Z,47.30
2023-10-05T12:37:36.533Z,47.70
2023-10-05T12:40:18.856Z,48.10
2023-10-05T12:45:25.828Z,49.30
2023-10-05T12:47:57.044Z,48.90
2023-10-05T12:50:29.308Z,49.60
2023-10-05T12:52:57.540Z,50.50
2023-10-05T12:55:27.701Z,51.50
2023-10-05T12:57:55.008Z,51.30
2023-10-05T13:00:27.018Z,51.80
2023-10-05T13:02:54.598Z,51.80
2023-10-05T13:05:32.402Z,52.20
2023-10-05T13:08:05.132Z,50.60
2023-10-05T13:10:34.257Z,50.50
2023-10-05T13:13:11.329Z,50.90
2023-10-05T13:15:39.872Z,50.80
2023-10-05T13:18:22.581Z,50.80
2023-10-05T13:20:51.087Z,51.60
2023-10-05T13:23:23.407Z,52.00
2023-10-05T13:25:52.494Z,51.50
2023-10-05T13:28:21.429Z,52.80
2023-10-05T13:30:49.343Z,52.50
2023-10-05T13:33:22.851Z,51.80
2023-10-05T13:35:54.384Z,51.90
2023-10-05T13:38:30.518Z,52.30
2023-10-05T13:41:07.001Z,51.70
2023-10-05T13:43:38.375Z,52.10
2023-10-05T13:46:23.684Z,52.50
2023-10-05T13:49:04.775Z,52.10
2023-10-05T13:51:35.239Z,52.70
2023-10-05T13:54:08.082Z,52.70
2023-10-05T13:56:35.305Z,52.30
2023-10-05T13:59:07.878Z,52.40
2023-10-05T14:01:35.168Z,53.10
2023-10-05T14:04:04.900Z,52.20
2023-10-05T14:06:32.264Z,51.80
2023-10-05T14:09:06.646Z,52.70
2023-10-05T14:11:35.165Z,52.60
2023-10-05T14:14:05.002Z,52.90
2023-10-05T14:16:40.228Z,52.50
2023-10-05T14:19:07.738Z,53.20
2023-10-05T14:21:35.177Z,52.70
2023-10-05T14:24:02.242Z,53.80
2023-10-05T14:26:29.232Z,54.00
2023-10-05T14:28:58.191Z,53.20
2023-10-05T14:31:31.634Z,53.50
2023-10-05T14:34:01.593Z,53.60
2023-10-05T14:36:31.772Z,53.70
2023-10-05T14:39:07.624Z,53.60
2023-10-05T14:41:40.221Z,54.00
2023-10-05T14:44:09.471Z,53.00
2023-10-05T14:46:36.568Z,53.80
2023-10-05T14:49:05.452Z,53.70
2023-10-05T14:51:32.609Z,54.10
2023-10-05T14:53:59.825Z,54.50
2023-10-05T14:56:27.294Z,53.80
2023-10-05T14:58:54.397Z,54.40
2023-10-05T15:01:24.325Z,54.20
2023-10-05T15:03:51.842Z,53.80
2023-10-05T15:06:19.990Z,54.40
2023-10-05T15:08:47.166Z,54.20
2023-10-05T15:11:14.333Z,55.00
2023-10-05T15:13:42.034Z,54.70
2023-10-05T15:16:10.486Z,54.80
2023-10-05T15:18:45.589Z,54.70
2023-10-05T15:21:12.857Z,55.10
2023-10-05T15:23:39.917Z,54.90
2023-10-05T15:26:08.419Z,55.20
2023-10-05T15:28:36.549Z,56.60
2023-10-05T15:31:07.511Z,55.80
2023-10-05T15:33:36.736Z,56.10
2023-10-05T15:36:05.006Z,55.90
2023-10-05T15:38:35.345Z,55.80
2023-10-05T15:41:06.200Z,56.30
2023-10-05T15:43:33.828Z,56.20
2023-10-05T15:46:01.968Z,57.10
2023-10-05T15:48:30.514Z,56.90
2023-10-05T15:50:57.754Z,57.10
2023-10-05T15:53:24.899Z,57.70
2023-10-05T15:55:53.303Z,56.90
2023-10-05T15:58:20.687Z,56.90
2023-10-05T16:00:47.855Z,57.70
2023-10-05T16:03:15.948Z,58.10
2023-10-05T16:05:44.265Z,57.90
2023-10-05T16:08:13.105Z,57.70
2023-10-05T16:10:40.600Z,58.20
2023-10-05T16:13:11.426Z,58.80
2023-10-05T16:15:42.130Z,59.40
2023-10-05T16:18:11.753Z,60.00
2023-10-05T16:20:42.106Z,60.20
2023-10-05T16:23:12.494Z,60.60
2023-10-05T16:25:40.989Z,60.80
2023-10-05T16:28:09.774Z,61.70
2023-10-05T16:30:37.764Z,61.70
2023-10-05T16:33:07.418Z,61.80
2023-10-05T16:35:34.946Z,61.90
2023-10-05T16:38:02.216Z,62.10
2023-10-05T16:40:30.683Z,62.60
2023-10-05T16:42:59.492Z,62.90
2023-10-05T16:45:41.319Z,62.60
2023-10-05T16:48:09.390Z,63.10
2023-10-05T16:50:36.536Z,63.50
2023-10-05T16:53:08.986Z,63.90
2023-10-05T16:55:38.744Z,64.10
2023-10-05T16:58:13.289Z,63.70
2023-10-05T17:00:41.916Z,64.10
2023-10-05T17:03:12.532Z,64.30
2023-10-05T17:05:40.900Z,64.90
2023-10-05T17:08:09.044Z,65.20
2023-10-05T17:10:36.697Z,65.20
2023-10-05T17:13:04.278Z,65.20
2023-10-05T17:15:31.653Z,66.00
2023-10-05T17:17:58.796Z,66.00
2023-10-05T17:20:26.015Z,66.10
2023-10-05T17:33:23.382Z,66.80
2023-10-05T17:35:54.037Z,66.90
2023-10-05T17:49:51.023Z,67.60
2023-10-05T17:52:18.485Z,67.40
2023-10-05T17:54:45.556Z,67.10
2023-10-05T17:57:12.651Z,67.60
2023-10-05T17:59:41.456Z,67.50
2023-10-05T18:02:09.122Z,67.30
2023-10-05T18:04:36.159Z,67.70
2023-10-05T18:26:17.204Z,66.40
2023-10-05T18:28:59.269Z,66.50
2023-10-05T18:31:35.859Z,66.70
2023-10-05T18:34:03.292Z,66.60
2023-10-05T18:36:30.390Z,66.80
2023-10-05T18:38:57.581Z,66.60
2023-10-05T18:41:27.820Z,66.50
2023-10-05T18:43:57.860Z,66.40
2023-10-05T18:46:25.179Z,67.10
2023-10-05T18:48:53.055Z,66.70
2023-10-05T18:51:21.767Z,66.60
2023-10-05T18:53:48.986Z,66.80
2023-10-05T18:56:16.523Z,66.90
2023-10-05T18:58:43.744Z,66.70
2023-10-05T19:01:10.902Z,66.30
2023-10-05T19:03:40.439Z,65.60
2023-10-05T19:06:08.981Z,65.90
2023-10-05T19:08:36.322Z,65.20
2023-10-05T19:11:05.796Z,65.30
2023-10-05T19:13:33.292Z,65.10
2023-10-05T19:16:00.466Z,65.10
2023-10-05T19:18:29.328Z,64.90
2023-10-05T19:20:57.594Z,64.50
2023-10-05T19:23:24.747Z,64.70
2023-10-05T19:26:00.116Z,64.70
2023-10-05T19:28:27.649Z,65.00
2023-10-05T19:31:00.850Z,65.10
2023-10-05T19:33:28.012Z,65.00
2023-10-05T19:35:55.350Z,65.40
2023-10-05T19:38:23.676Z,64.80
2023-10-05T19:40:51.101Z,64.70
2023-10-05T19:43:18.434Z,64.90
2023-10-05T19:45:45.590Z,64.80
2023-10-05T19:48:12.948Z,64.70
2023-10-05T19:50:40.482Z,64.50
2023-10-05T19:53:07.688Z,64.00
2023-10-05T19:55:34.971Z,64.00
2023-10-05T19:58:06.232Z,63.30
2023-10-05T20:00:36.392Z,63.60
2023-10-05T20:03:06.838Z,63.50
2023-10-05T20:05:38.593Z,63.70
2023-10-05T20:08:06.779Z,63.50
2023-10-05T20:10:34.274Z,63.60
2023-10-05T20:13:06.733Z,63.70
2023-10-05T20:15:48.568Z,63.80
2023-10-05T20:18:16.722Z,64.00
2023-10-05T20:20:44.101Z,64.30
2023-10-05T20:24:15.514Z,64.60
2023-10-05T21:03:51.910Z,63.60
2023-10-05T21:06:25.050Z,63.40
2023-10-05T21:16:20.822Z,63.50
2023-10-05T21:42:53.343Z,64.20
2023-10-05T21:45:22.848Z,63.50
2023-10-05T21:47:54.353Z,63.60
2023-10-05T21:50:22.437Z,63.40
2023-10-05T21:52:50.875Z,63.70
2023-10-05T21:55:18.363Z,63.90
2023-10-05T21:57:45.732Z,64.10
2023-10-05T22:00:19.577Z,63.50
2023-10-05T22:02:46.980Z,63.40
2023-10-05T22:08:12.625Z,64.10
2023-10-05T22:10:45.070Z,64.20
2023-10-05T22:13:12.938Z,63.90
2023-10-05T22:15:46.238Z,64.60
2023-10-05T22:18:13.913Z,64.20
2023-10-05T22:20:42.007Z,64.90
2023-10-05T22:23:10.575Z,64.90
2023-10-05T22:25:40.615Z,64.90
2023-10-05T22:28:09.671Z,65.30
2023-10-05T22:30:39.207Z,63.90
2023-10-05T22:33:10.228Z,64.20
2023-10-05T22:35:40.946Z,64.70
2023-10-05T22:38:21.368Z,64.00
2023-10-05T23:09:42.729Z,64.70
2023-10-05T23:12:53.497Z,64.50
2023-10-05T23:15:46.945Z,65.30
2023-10-05T23:19:00.228Z,65.00
2023-10-05T23:21:50.297Z,65.10
2023-10-05T23:25:29.042Z,65.80
2023-10-05T23:28:13.220Z,66.30
2023-10-05T23:33:49.457Z,66.30
2023-10-05T23:36:29.238Z,66.10
2023-10-05T23:43:17.548Z,66.00
2023-10-05T23:45:54.160Z,66.80
2023-10-05T23:48:24.687Z,65.70
2023-10-05T23:50:55.081Z,66.10
2023-10-05T23:53:25.099Z,65.80
2023-10-05T23:55:55.541Z,65.70
2023-10-05T23:58:28.036Z,66.60
